CDT,Max TemperatureF,Mean TemperatureF,Min TemperatureF,Max Dew PointF,MeanDew PointF,Min DewpointF,Max Humidity, Mean Humidity, Min Humidity, Max Sea Level PressureIn, Mean Sea Level PressureIn, Min Sea Level PressureIn, Max VisibilityMiles, Mean VisibilityMiles, Min VisibilityMiles, Max Wind SpeedMPH, Mean Wind SpeedMPH, Max Gust SpeedMPH,PrecipitationIn, CloudCover, Events, WindDirDegrees
2013-7-1,81,72,61,71,67,62,100,89,58,29.93,29.87,29.81,10,10,6,10,1,,0.02,1,Rain,211
2013-7-2,82,72,63,72,68,63,100,86,60,30.09,30.01,29.93,10,9,5,9,2,,0.00,2,Rain,214
2013-7-3,77,72,68,73,70,66,100,92,81,30.17,30.14,30.08,10,10,5,10,3,,0.01,1,Rain,160
2013-7-4,75,70,64,74,68,64,100,99,93,30.18,30.16,30.14,10,4,0,10,4,,1.74,6,Fog-Rain,109
2013-7-5,82,73,64,73,70,64,100,93,69,30.18,30.16,30.12,10,8,1,15,4,20,0.07,5,Rain,166
2013-7-6,73,70,68,72,69,68,100,99,90,30.18,30.16,30.13,10,4,0,9,4,,2.18,5,Fog-Rain,194
2013-7-7,83,74,66,74,69,66,100,92,61,30.19,30.15,30.09,10,7,1,7,3,,0.50,5,Rain,219
2013-7-8,88,76,63,78,71,64,100,84,53,30.22,30.17,30.12,10,7,1,7,1,,0.00,2,,278
2013-7-9,91,78,65,77,73,66,100,84,59,30.19,30.14,30.07,10,5,1,8,3,,0.00,1,,228
2013-7-10,122,96,71,78,73,70,100,92,59,30.08,30.01,29.93,10,5,0,22,5,30,0.64,4,Fog-Rain-Thunderstorm,208
2013-7-11,126,99,70,76,72,70,97,82,65,30.03,29.99,29.92,10,5,0,7,1,,0.00,6,Fog,30
2013-7-12,110,86,61,85,67,59,100,79,50,30.08,30.03,29.98,10,9,4,13,7,,0.00,2,,22
2013-7-13,97,77,57,86,69,58,100,91,67,30.13,30.08,30.01,10,7,0,13,3,18,0.15,2,Fog-Rain-Thunderstorm,75
2013-7-14,99,80,61,79,69,62,100,95,63,30.25,30.16,30.12,10,4,0,8,1,,0.37,2,Fog-Rain-Thunderstorm,273
2013-7-15,126,98,68,74,70,68,100,72,50,30.33,30.28,30.24,10,10,5,8,2,,0.00,0,,122
2013-7-16,91,78,66,79,72,66,100,83,53,30.38,30.32,30.29,10,8,2,6,1,,0.00,0,,357
2013-7-17,92,79,66,79,71,66,100,92,55,30.35,30.31,30.22,10,4,0,8,0,,0.00,0,Fog,44
2013-7-18,90,80,69,81,74,70,100,92,65,30.24,30.18,30.11,10,6,1,13,1,,0.01,0,Rain-Thunderstorm,235
2013-7-19,129,100,72,77,74,71,100,76,53,30.14,30.06,29.98,10,8,2,10,2,,0.00,0,,231
2013-7-20,88,78,68,77,73,69,100,84,57,30.04,29.99,29.93,10,9,5,9,3,18,0.03,1,,240
2013-7-21,79,74,68,76,74,69,100,98,81,30.05,30.01,29.95,10,7,1,12,4,,0.15,3,Rain-Thunderstorm,234
2013-7-22,77,74,70,76,73,70,100,98,84,29.98,29.92,29.87,10,6,0,14,7,21,0.65,5,Fog-Rain,231
2013-7-23,86,78,71,81,74,72,100,93,72,29.94,29.91,29.82,10,6,1,10,5,,0.00,6,,237
2013-7-24,109,86,63,84,73,64,100,88,23,29.98,29.91,29.84,10,10,7,12,3,,0.00,4,,337
2013-7-25,122,90,59,70,64,59,100,89,52,30.11,30.03,29.96,10,6,0,10,1,,0.00,2,Fog,13
2013-7-26,82,68,55,68,61,55,100,88,54,30.12,30.08,30.04,10,6,0,8,1,,0.00,0,Fog,280
2013-7-27,81,72,64,71,68,64,100,89,67,30.02,29.97,29.91,10,8,2,8,1,,0.00,2,,275
2013-7-28,75,65,54,68,56,50,100,71,42,30.14,30.07,29.97,10,10,10,13,4,,0.00,1,,303
2013-7-29,79,64,50,64,57,50,100,77,46,30.25,30.20,30.14,10,9,6,8,1,,0.00,0,,353
2013-7-30,77,66,55,70,65,56,100,89,66,30.27,30.22,30.17,10,8,3,7,1,,0.08,1,Rain,112
2013-7-31,73,69,65,74,68,66,100,100,93,30.18,30.09,29.99,10,4,0,8,2,,0.31,7,Fog-Rain,137